createdAt,value
2023-05-19T00:00:35.178Z,6.77
2023-05-19T00:03:01.384Z,6.86
2023-05-19T00:05:27.611Z,6.76
2023-05-19T00:07:53.768Z,6.41
2023-05-19T00:10:19.942Z,6.27
2023-05-19T00:12:46.120Z,5.91
2023-05-19T00:15:12.250Z,6.15
2023-05-19T00:17:38.484Z,6.35
2023-05-19T00:20:04.672Z,6.62
2023-05-19T00:22:30.808Z,6.53
2023-05-19T00:24:56.939Z,6.63
2023-05-19T00:27:23.077Z,6.64
2023-05-19T00:29:49.234Z,6.63
2023-05-19T00:32:15.418Z,6.66
2023-05-19T00:34:41.568Z,6.64
2023-05-19T00:37:07.752Z,6.65
2023-05-19T00:39:33.916Z,6.62
2023-05-19T00:42:00.090Z,6.67
2023-05-19T00:44:26.266Z,6.67
2023-05-19T00:46:52.474Z,6.57
2023-05-19T00:49:18.694Z,6.43
2023-05-19T00:51:44.824Z,6.40
2023-05-19T00:54:10.982Z,6.03
2023-05-19T00:56:37.144Z,6.15
2023-05-19T00:59:03.305Z,6.14
2023-05-19T01:01:29.548Z,6.36
2023-05-19T01:03:55.998Z,6.36
2023-05-19T01:06:22.300Z,6.35
2023-05-19T01:08:48.503Z,6.39
2023-05-19T01:11:14.647Z,6.46
2023-05-19T01:13:42.256Z,6.52
2023-05-19T01:16:08.589Z,6.60
2023-05-19T01:18:34.758Z,6.33
2023-05-19T01:21:00.928Z,6.39
2023-05-19T01:23:27.118Z,6.49
2023-05-19T01:25:53.267Z,6.49
2023-05-19T01:28:19.458Z,6.41
2023-05-19T01:30:45.604Z,6.42
2023-05-19T01:33:11.845Z,6.58
2023-05-19T01:35:38.036Z,6.75
2023-05-19T01:38:04.188Z,6.63
2023-05-19T01:40:30.541Z,6.62
2023-05-19T01:42:57.709Z,6.70
2023-05-19T01:45:24.141Z,6.70
2023-05-19T01:47:50.322Z,6.63
2023-05-19T01:50:16.470Z,6.72
2023-05-19T01:52:42.625Z,6.78
2023-05-19T01:55:08.794Z,6.79
2023-05-19T01:57:34.957Z,6.87
2023-05-19T02:00:01.091Z,6.84
2023-05-19T02:02:27.261Z,6.80
2023-05-19T02:04:53.438Z,6.70
2023-05-19T02:07:19.598Z,6.84
2023-05-19T02:09:45.747Z,6.83
2023-05-19T02:12:11.893Z,6.85
2023-05-19T02:14:38.033Z,6.80
2023-05-19T02:17:04.187Z,6.91
2023-05-19T02:19:30.359Z,6.84
2023-05-19T02:21:56.525Z,6.60
2023-05-19T02:24:22.733Z,6.52
2023-05-19T02:26:48.887Z,6.31
2023-05-19T02:29:15.048Z,5.96
2023-05-19T02:31:41.240Z,6.35
2023-05-19T02:34:07.414Z,6.65
2023-05-19T02:36:33.572Z,6.50
2023-05-19T02:38:59.708Z,6.58
2023-05-19T02:41:25.837Z,6.87
2023-05-19T02:43:52.017Z,6.69
2023-05-19T02:46:18.229Z,6.72
2023-05-19T02:48:44.431Z,6.69
2023-05-19T02:51:11.650Z,6.71
2023-05-19T02:53:37.817Z,6.78
2023-05-19T02:56:03.948Z,6.73
2023-05-19T02:58:30.084Z,6.59
2023-05-19T03:00:56.237Z,6.55
2023-05-19T03:03:22.454Z,6.33
2023-05-19T03:05:48.644Z,6.38
2023-05-19T03:08:14.797Z,6.27
2023-05-19T03:10:40.948Z,6.31
2023-05-19T03:13:07.129Z,6.74
2023-05-19T03:15:33.294Z,6.53
2023-05-19T03:17:59.543Z,6.38
2023-05-19T03:20:25.706Z,6.43
2023-05-19T03:22:51.862Z,6.51
2023-05-19T03:25:18.006Z,6.54
2023-05-19T03:27:44.151Z,6.51
2023-05-19T03:30:10.311Z,6.47
2023-05-19T03:32:36.565Z,6.51
2023-05-19T03:35:02.770Z,6.49
2023-05-19T03:37:28.969Z,6.55
2023-05-19T03:39:55.152Z,6.60
2023-05-19T03:42:21.313Z,6.49
2023-05-19T03:44:47.492Z,6.37
2023-05-19T03:47:13.635Z,6.33
2023-05-19T03:49:39.790Z,6.61
2023-05-19T03:52:05.912Z,6.49
2023-05-19T03:54:32.069Z,6.51
2023-05-19T03:56:58.219Z,6.50
2023-05-19T03:59:24.354Z,6.52
2023-05-19T04:01:50.523Z,6.54
2023-05-19T04:04:16.680Z,6.46
2023-05-19T04:06:42.852Z,6.46
2023-05-19T04:09:09.000Z,6.71
2023-05-19T04:11:35.149Z,6.19
2023-05-19T04:14:01.298Z,5.79
2023-05-19T04:16:27.563Z,5.77
2023-05-19T04:18:53.793Z,5.25
2023-05-19T04:21:19.964Z,5.57
2023-05-19T04:23:46.112Z,5.46
2023-05-19T04:26:12.318Z,5.58
2023-05-19T04:28:38.504Z,5.98
2023-05-19T04:31:04.724Z,5.92
2023-05-19T04:33:30.907Z,6.10
2023-05-19T04:35:57.088Z,6.40
2023-05-19T04:38:23.231Z,6.42
2023-05-19T04:40:49.469Z,6.61
2023-05-19T04:43:15.598Z,6.64
2023-05-19T04:45:41.757Z,6.68
2023-05-19T04:48:07.963Z,6.70
2023-05-19T04:50:34.517Z,6.74
2023-05-19T04:53:00.802Z,6.76
2023-05-19T04:55:26.938Z,7.04
2023-05-19T04:57:53.086Z,7.09
2023-05-19T05:00:19.227Z,7.07
2023-05-19T05:02:45.479Z,7.08
2023-05-19T05:05:11.812Z,7.16
2023-05-19T05:07:38.012Z,7.22
2023-05-19T05:10:04.157Z,7.38
2023-05-19T05:12:30.785Z,7.44
2023-05-19T05:14:56.958Z,7.18
2023-05-19T05:17:23.122Z,7.01
2023-05-19T05:19:49.291Z,7.08
2023-05-19T05:22:15.451Z,7.12
2023-05-19T05:24:41.638Z,7.31
2023-05-19T05:27:07.796Z,7.33
2023-05-19T05:29:33.949Z,7.48
2023-05-19T05:32:00.177Z,7.57
2023-05-19T05:34:26.377Z,7.90
2023-05-19T05:36:52.520Z,7.85
2023-05-19T05:39:18.684Z,7.90
2023-05-19T05:41:44.831Z,7.92
2023-05-19T05:44:10.984Z,7.93
2023-05-19T05:46:37.160Z,8.07
2023-05-19T05:49:03.360Z,8.30
2023-05-19T05:51:29.507Z,8.36
2023-05-19T05:53:55.677Z,8.52
2023-05-19T05:56:21.843Z,8.50
2023-05-19T05:58:47.995Z,8.63
2023-05-19T06:01:14.157Z,8.89
2023-05-19T06:03:40.388Z,9.18
2023-05-19T06:06:06.552Z,9.17
2023-05-19T06:08:32.716Z,9.25
2023-05-19T06:10:58.877Z,9.43
2023-05-19T06:13:25.037Z,9.50
2023-05-19T06:15:51.237Z,9.71
2023-05-19T06:18:17.431Z,9.88
2023-05-19T06:20:43.586Z,9.84
2023-05-19T06:23:09.755Z,9.66
2023-05-19T06:25:35.891Z,9.60
2023-05-19T06:28:02.173Z,10.05
2023-05-19T06:30:28.326Z,10.04
2023-05-19T06:32:54.486Z,10.22
2023-05-19T06:35:20.668Z,10.59
2023-05-19T06:37:46.825Z,10.60
2023-05-19T06:40:12.987Z,10.38
2023-05-19T06:42:39.128Z,10.07
2023-05-19T06:45:05.293Z,10.00
2023-05-19T06:47:31.454Z,9.37
2023-05-19T06:49:57.932Z,9.23
2023-05-19T06:52:24.066Z,9.14
2023-05-19T06:54:50.358Z,8.86
2023-05-19T06:57:16.522Z,8.81
2023-05-19T06:59:42.662Z,8.18
2023-05-19T07:02:08.893Z,8.19
2023-05-19T07:04:35.161Z,8.06
2023-05-19T07:07:01.321Z,8.28
2023-05-19T07:09:27.800Z,7.86
2023-05-19T07:11:53.956Z,7.98
2023-05-19T07:14:20.086Z,7.88
2023-05-19T07:16:46.308Z,7.63
2023-05-19T07:19:12.666Z,7.76
2023-05-19T07:21:38.846Z,7.42
2023-05-19T07:24:05.005Z,7.93
2023-05-19T07:26:31.142Z,8.52
2023-05-19T07:28:57.312Z,7.95
2023-05-19T07:31:23.555Z,7.88
2023-05-19T07:33:50.735Z,8.66
2023-05-19T07:36:17.797Z,9.20
2023-05-19T07:38:43.987Z,9.37
2023-05-19T07:41:10.217Z,9.18
2023-05-19T07:43:36.365Z,9.71
2023-05-19T07:46:02.585Z,10.13
2023-05-19T07:48:28.737Z,10.60
2023-05-19T07:50:54.900Z,10.28
2023-05-19T07:53:21.263Z,10.56
2023-05-19T07:55:47.506Z,10.88
2023-05-19T07:58:13.648Z,10.28
2023-05-19T08:00:39.774Z,9.84
2023-05-19T08:03:06.097Z,9.70
2023-05-19T08:05:32.437Z,9.36
2023-05-19T08:07:58.577Z,10.00
2023-05-19T08:10:24.809Z,9.84
2023-05-19T08:12:51.034Z,9.63
2023-05-19T08:15:17.191Z,9.53
2023-05-19T08:17:43.397Z,9.82
2023-05-19T08:20:09.619Z,9.91
2023-05-19T08:22:35.766Z,9.75
2023-05-19T08:25:01.933Z,10.20
2023-05-19T08:27:28.086Z,10.52
2023-05-19T08:29:54.235Z,10.77
2023-05-19T08:32:20.389Z,10.00
2023-05-19T08:34:46.526Z,10.35
2023-05-19T08:37:12.685Z,9.91
2023-05-19T08:39:38.819Z,9.93
2023-05-19T08:42:04.946Z,10.65
2023-05-19T08:44:31.175Z,10.45
2023-05-19T08:46:57.386Z,11.42
2023-05-19T08:49:25.493Z,11.49
2023-05-19T08:51:51.868Z,12.11
2023-05-19T08:54:18.017Z,11.88
2023-05-19T08:56:44.201Z,11.94
2023-05-19T08:59:10.337Z,12.02
2023-05-19T09:04:03.720Z,11.93
2023-05-19T09:06:30.123Z,11.67
2023-05-19T09:08:56.287Z,11.19
2023-05-19T09:11:22.814Z,12.24
2023-05-19T09:13:48.995Z,12.71
2023-05-19T09:16:15.160Z,12.05
2023-05-19T09:18:41.367Z,12.69
2023-05-19T09:21:07.596Z,12.66
2023-05-19T09:23:33.887Z,13.11
2023-05-19T09:26:00.099Z,12.42
2023-05-19T09:28:26.290Z,13.18
2023-05-19T09:30:52.440Z,12.98
2023-05-19T09:33:18.635Z,13.89
2023-05-19T09:35:44.839Z,13.18
2023-05-19T09:38:10.991Z,13.80
2023-05-19T09:40:37.124Z,13.89
2023-05-19T09:43:03.285Z,14.06
2023-05-19T09:45:29.466Z,14.64
2023-05-19T09:47:55.658Z,15.06
2023-05-19T09:50:21.828Z,14.81
2023-05-19T09:52:48.253Z,15.35
2023-05-19T09:55:14.425Z,15.07
2023-05-19T09:57:40.594Z,14.38
2023-05-19T10:00:06.738Z,13.13
2023-05-19T10:02:32.893Z,14.08
2023-05-19T10:04:59.085Z,13.42
2023-05-19T10:07:25.250Z,13.37
2023-05-19T10:09:51.446Z,13.43
2023-05-19T10:12:17.607Z,13.15
2023-05-19T10:14:43.893Z,14.11
2023-05-19T10:17:10.057Z,13.37
2023-05-19T10:19:36.230Z,13.42
2023-05-19T10:22:02.447Z,13.27
2023-05-19T10:24:28.610Z,12.92
2023-05-19T10:26:54.758Z,13.34
2023-05-19T10:29:20.918Z,13.76
2023-05-19T10:31:47.133Z,12.68
2023-05-19T10:34:13.303Z,13.01
2023-05-19T10:36:39.449Z,13.60
2023-05-19T10:39:05.633Z,13.35
2023-05-19T10:41:31.788Z,13.34
2023-05-19T10:43:58.541Z,13.09
2023-05-19T10:46:24.750Z,12.96
2023-05-19T10:48:50.962Z,12.34
2023-05-19T10:51:17.271Z,12.04
2023-05-19T10:53:43.537Z,12.54
2023-05-19T10:56:09.677Z,12.59
2023-05-19T10:58:35.843Z,12.76
2023-05-19T11:01:02.024Z,12.64
2023-05-19T11:03:28.182Z,12.91
2023-05-19T11:05:54.368Z,13.41
2023-05-19T11:08:20.500Z,12.55
2023-05-19T11:10:46.684Z,12.34
2023-05-19T11:13:12.839Z,12.81
2023-05-19T11:15:38.978Z,12.77
2023-05-19T11:18:05.328Z,12.77
2023-05-19T11:20:31.512Z,12.92
2023-05-19T11:22:57.683Z,12.66
2023-05-19T11:25:23.872Z,13.07
2023-05-19T11:27:50.012Z,12.70
2023-05-19T11:30:16.169Z,12.80
2023-05-19T11:32:42.387Z,12.22
2023-05-19T11:35:08.557Z,12.24
2023-05-19T11:37:34.748Z,12.67
2023-05-19T11:40:00.986Z,13.01
2023-05-19T11:42:27.440Z,13.15
2023-05-19T11:44:53.587Z,13.10
2023-05-19T11:47:19.726Z,13.32
2023-05-19T11:49:45.882Z,12.84
2023-05-19T11:52:12.104Z,12.80
2023-05-19T11:54:38.240Z,12.94
2023-05-19T11:57:04.396Z,12.88
2023-05-19T11:59:30.958Z,13.28
2023-05-19T12:01:57.565Z,13.00
2023-05-19T12:04:23.717Z,13.01
2023-05-19T12:06:49.904Z,13.04
2023-05-19T12:09:16.068Z,13.70
2023-05-19T12:11:42.321Z,13.91
2023-05-19T12:14:08.502Z,13.09
2023-05-19T12:16:34.780Z,12.80
2023-05-19T12:19:01.032Z,13.59
2023-05-19T12:21:33.636Z,14.12
2023-05-19T12:24:00.496Z,12.88
2023-05-19T12:26:26.655Z,12.90
2023-05-19T12:28:52.821Z,12.95
2023-05-19T12:31:19.010Z,12.79
2023-05-19T12:33:45.154Z,13.06
2023-05-19T12:36:11.319Z,13.25
2023-05-19T12:38:37.480Z,12.75
2023-05-19T12:41:03.631Z,12.75
2023-05-19T12:43:29.808Z,12.69
2023-05-19T12:45:56.032Z,12.90
2023-05-19T12:48:22.199Z,12.68
2023-05-19T12:50:48.356Z,12.72
2023-05-19T12:53:14.620Z,12.53
2023-05-19T12:55:40.815Z,12.41
2023-05-19T12:58:06.973Z,12.21
2023-05-19T13:00:33.397Z,11.96
2023-05-19T13:03:00.257Z,11.57
2023-05-19T13:05:26.803Z,11.41
2023-05-19T13:07:53.000Z,11.44
2023-05-19T13:10:19.149Z,11.75
2023-05-19T13:12:45.304Z,11.47
2023-05-19T13:15:11.437Z,11.94
2023-05-19T13:17:37.625Z,11.74
2023-05-19T13:20:03.764Z,11.78
2023-05-19T13:22:29.921Z,11.79
2023-05-19T13:24:56.066Z,11.42
2023-05-19T13:27:22.230Z,11.00
2023-05-19T13:29:48.373Z,11.45
2023-05-19T13:32:14.523Z,11.63
2023-05-19T13:34:40.760Z,12.47
2023-05-19T13:37:07.665Z,12.81
2023-05-19T13:39:34.009Z,13.27
2023-05-19T13:42:00.209Z,13.90
2023-05-19T13:44:26.348Z,13.82
2023-05-19T13:46:52.548Z,13.99
2023-05-19T13:49:18.859Z,14.17
2023-05-19T13:51:45.008Z,14.10
2023-05-19T13:54:11.162Z,13.50
2023-05-19T13:56:37.304Z,12.90
2023-05-19T13:59:03.456Z,13.35
2023-05-19T14:01:29.632Z,13.37
2023-05-19T14:03:55.872Z,13.36
2023-05-19T14:06:22.171Z,13.71
2023-05-19T14:08:48.316Z,13.20
2023-05-19T14:11:14.491Z,13.46
2023-05-19T14:13:43.250Z,13.28
2023-05-19T14:16:09.684Z,13.43
2023-05-19T14:18:35.913Z,13.57
2023-05-19T14:21:02.062Z,13.69
2023-05-19T14:23:28.228Z,13.77
2023-05-19T14:25:54.381Z,13.55
2023-05-19T14:28:20.518Z,13.69
2023-05-19T14:30:47.244Z,13.75
2023-05-19T14:33:13.573Z,14.04
2023-05-19T14:35:39.795Z,12.82
2023-05-19T14:38:05.969Z,13.11
2023-05-19T14:40:32.228Z,13.36
2023-05-19T14:42:58.576Z,13.33
2023-05-19T14:45:24.717Z,13.82
2023-05-19T14:47:50.901Z,13.85
2023-05-19T14:50:17.074Z,13.98
2023-05-19T14:52:43.248Z,13.87
2023-05-19T14:55:11.554Z,14.18
2023-05-19T14:57:37.705Z,13.01
2023-05-19T15:00:03.856Z,13.69
2023-05-19T15:02:30.161Z,12.76
2023-05-19T15:04:56.397Z,12.81
2023-05-19T15:07:22.542Z,12.76
2023-05-19T15:09:48.670Z,12.70
2023-05-19T15:12:14.814Z,12.83
2023-05-19T15:14:40.972Z,12.61
2023-05-19T15:17:07.197Z,12.52
2023-05-19T15:19:33.504Z,12.01
2023-05-19T15:21:59.748Z,13.04
2023-05-19T15:24:25.889Z,12.72
2023-05-19T15:26:52.053Z,12.17
2023-05-19T15:29:18.224Z,12.91
2023-05-19T15:31:44.507Z,13.14
2023-05-19T15:34:10.770Z,12.42
2023-05-19T15:36:36.919Z,12.67
2023-05-19T15:39:03.084Z,12.69
2023-05-19T15:41:29.223Z,12.90
2023-05-19T15:43:55.371Z,12.77
2023-05-19T15:46:21.542Z,12.36
2023-05-19T15:48:47.845Z,11.77
2023-05-19T15:51:14.015Z,11.70
2023-05-19T15:53:40.157Z,11.59
2023-05-19T15:56:06.306Z,11.33
2023-05-19T15:58:32.474Z,11.40
2023-05-19T16:00:58.646Z,11.32
2023-05-19T16:03:24.883Z,11.90
2023-05-19T16:05:51.111Z,12.00
2023-05-19T16:08:17.339Z,12.07
2023-05-19T16:10:43.486Z,12.52
2023-05-19T16:13:09.677Z,12.45
2023-05-19T16:15:35.846Z,12.62
2023-05-19T16:18:02.009Z,12.90
2023-05-19T16:20:28.231Z,13.00
2023-05-19T16:22:54.419Z,13.11
2023-05-19T16:25:20.566Z,13.11
2023-05-19T16:27:46.728Z,13.17
2023-05-19T16:30:12.876Z,13.21
2023-05-19T16:32:39.075Z,13.46
2023-05-19T16:35:05.263Z,13.58
2023-05-19T16:37:31.540Z,13.51
2023-05-19T16:39:57.703Z,13.59
2023-05-19T16:42:23.840Z,13.66
2023-05-19T16:44:50.006Z,13.65
2023-05-19T16:47:16.144Z,13.61
2023-05-19T16:49:42.470Z,13.65
2023-05-19T16:52:08.602Z,13.69
2023-05-19T16:54:34.748Z,13.58
2023-05-19T16:57:00.932Z,13.49
2023-05-19T16:59:27.081Z,13.67
2023-05-19T17:01:53.250Z,13.64
2023-05-19T17:04:19.404Z,13.24
2023-05-19T17:06:45.563Z,13.04
2023-05-19T17:09:11.704Z,13.09
2023-05-19T17:11:37.854Z,12.99
2023-05-19T17:14:04.033Z,12.97
2023-05-19T17:16:30.197Z,12.95
2023-05-19T17:18:56.420Z,12.99
2023-05-19T17:21:22.600Z,12.93
2023-05-19T17:23:48.768Z,12.83
2023-05-19T17:26:14.941Z,12.98
2023-05-19T17:28:41.091Z,12.96
2023-05-19T17:31:07.233Z,12.61
2023-05-19T17:33:33.422Z,12.21
2023-05-19T17:35:59.578Z,11.42
2023-05-19T17:38:25.741Z,11.41
2023-05-19T17:40:51.877Z,11.41
2023-05-19T17:43:18.028Z,11.05
2023-05-19T17:45:44.190Z,10.63
2023-05-19T17:48:10.480Z,10.23
2023-05-19T17:50:36.670Z,9.98
2023-05-19T17:53:02.833Z,10.15
2023-05-19T17:55:28.995Z,10.07
2023-05-19T17:57:55.133Z,9.81
2023-05-19T18:00:21.276Z,9.95
2023-05-19T18:02:47.473Z,10.43
2023-05-19T18:05:13.672Z,10.24
2023-05-19T18:07:39.801Z,10.58
2023-05-19T18:10:06.005Z,10.79
2023-05-19T18:12:32.160Z,10.89
2023-05-19T18:14:58.285Z,10.99
2023-05-19T18:17:24.427Z,10.97
2023-05-19T18:19:50.594Z,10.93
2023-05-19T18:22:16.845Z,10.24
2023-05-19T18:24:43.007Z,10.58
2023-05-19T18:27:09.190Z,10.66
2023-05-19T18:29:35.361Z,10.55
2023-05-19T18:32:01.642Z,10.33
2023-05-19T18:34:27.838Z,10.28
2023-05-19T18:36:53.973Z,9.49
2023-05-19T18:39:20.112Z,9.58
2023-05-19T18:41:46.330Z,9.59
2023-05-19T18:44:12.482Z,9.91
2023-05-19T18:46:38.786Z,10.05
2023-05-19T18:49:04.954Z,9.42
2023-05-19T18:51:31.093Z,9.63
2023-05-19T18:53:57.219Z,9.80
2023-05-19T18:56:23.435Z,9.61
2023-05-19T18:58:49.576Z,10.07
2023-05-19T19:01:15.765Z,10.07
2023-05-19T19:03:41.975Z,10.17
2023-05-19T19:06:08.117Z,9.94
2023-05-19T19:08:34.264Z,9.75
2023-05-19T19:11:00.396Z,9.75
2023-05-19T19:13:26.531Z,10.00
2023-05-19T19:15:52.677Z,10.02
2023-05-19T19:18:18.818Z,10.01
2023-05-19T19:20:44.979Z,9.89
2023-05-19T19:23:11.155Z,9.93
2023-05-19T19:25:37.350Z,10.06
2023-05-19T19:28:03.488Z,10.15
2023-05-19T19:30:29.638Z,10.04
2023-05-19T19:32:55.800Z,10.03
2023-05-19T19:35:21.964Z,10.00
2023-05-19T19:37:48.255Z,9.87
2023-05-19T19:40:14.389Z,10.07
2023-05-19T19:42:40.536Z,10.13
2023-05-19T19:45:06.705Z,10.16
2023-05-19T19:47:32.902Z,10.00
2023-05-19T19:49:59.137Z,10.01
2023-05-19T19:52:25.295Z,10.16
2023-05-19T19:54:51.452Z,10.20
2023-05-19T19:57:17.594Z,10.31
2023-05-19T19:59:43.766Z,10.35
2023-05-19T20:02:10.109Z,10.12
2023-05-19T20:04:36.541Z,10.11
2023-05-19T20:07:02.759Z,10.23
2023-05-19T20:09:28.911Z,10.13
2023-05-19T20:11:55.043Z,10.20
2023-05-19T20:14:21.328Z,9.99
2023-05-19T20:16:47.494Z,10.02
2023-05-19T20:19:13.678Z,10.10
2023-05-19T20:21:39.893Z,10.16
2023-05-19T20:24:06.047Z,10.08
2023-05-19T20:26:32.251Z,9.96
2023-05-19T20:28:58.416Z,10.22
2023-05-19T20:31:24.706Z,10.04
2023-05-19T20:33:50.884Z,10.08
2023-05-19T20:36:17.037Z,10.04
2023-05-19T20:38:43.344Z,10.15
2023-05-19T20:41:09.520Z,10.13
2023-05-19T20:43:35.656Z,10.00
2023-05-19T20:46:01.842Z,10.03
2023-05-19T20:48:28.049Z,9.92
2023-05-19T20:50:54.254Z,9.35
2023-05-19T20:53:20.457Z,9.64
2023-05-19T20:55:46.611Z,9.05
2023-05-19T20:58:12.778Z,9.18
2023-05-19T21:00:38.921Z,9.17
2023-05-19T21:03:05.141Z,9.02
2023-05-19T21:05:31.449Z,9.49
2023-05-19T21:07:57.660Z,9.76
2023-05-19T21:10:23.805Z,9.80
2023-05-19T21:12:49.954Z,9.86
2023-05-19T21:15:16.124Z,9.91
2023-05-19T21:17:42.450Z,9.92
2023-05-19T21:20:08.676Z,9.79
2023-05-19T21:22:34.852Z,9.75
2023-05-19T21:25:00.987Z,9.84
2023-05-19T21:27:27.187Z,9.77
2023-05-19T21:29:53.335Z,9.84
2023-05-19T21:32:19.811Z,9.88
2023-05-19T21:34:46.003Z,9.98
2023-05-19T21:37:12.156Z,9.87
2023-05-19T21:39:38.337Z,9.65
2023-05-19T21:42:04.484Z,9.62
2023-05-19T21:44:30.630Z,9.74
2023-05-19T21:46:56.885Z,9.68
2023-05-19T21:49:23.068Z,9.79
2023-05-19T21:51:49.240Z,9.72
2023-05-19T21:54:15.386Z,9.61
2023-05-19T21:56:41.533Z,9.69
2023-05-19T21:59:07.712Z,9.84
2023-05-19T22:01:33.908Z,9.78
2023-05-19T22:04:00.254Z,9.76
2023-05-19T22:06:26.551Z,9.91
2023-05-19T22:08:52.719Z,9.79
2023-05-19T22:11:18.886Z,9.67
2023-05-19T22:13:45.047Z,9.73
2023-05-19T22:16:11.253Z,9.71
2023-05-19T22:18:37.411Z,9.70
2023-05-19T22:21:03.588Z,9.71
2023-05-19T22:23:29.810Z,9.83
2023-05-19T22:25:55.965Z,9.73
2023-05-19T22:28:22.184Z,9.75
2023-05-19T22:30:48.325Z,9.75
2023-05-19T22:33:14.450Z,9.74
2023-05-19T22:35:40.618Z,9.78
2023-05-19T22:38:08.867Z,9.78
2023-05-19T22:40:36.681Z,9.69
2023-05-19T22:43:02.998Z,9.58
2023-05-19T22:45:29.174Z,9.62
2023-05-19T22:47:55.443Z,9.65
2023-05-19T22:50:21.612Z,9.68
2023-05-19T22:52:47.845Z,9.62
2023-05-19T22:55:14.002Z,9.64
2023-05-19T22:57:40.147Z,9.63
2023-05-19T23:00:06.326Z,9.67
2023-05-19T23:02:32.516Z,9.73
2023-05-19T23:04:58.665Z,9.75
2023-05-19T23:07:24.809Z,9.67
2023-05-19T23:09:50.983Z,9.60
2023-05-19T23:12:17.116Z,9.67
2023-05-19T23:14:43.272Z,9.68
2023-05-19T23:17:09.456Z,9.45
2023-05-19T23:19:35.682Z,9.51
2023-05-19T23:22:01.810Z,9.64
2023-05-19T23:24:27.957Z,9.71
2023-05-19T23:26:54.106Z,9.65
2023-05-19T23:29:20.237Z,9.82
2023-05-19T23:31:46.460Z,9.75
2023-05-19T23:34:12.671Z,9.69
2023-05-19T23:36:38.840Z,9.50
2023-05-19T23:39:04.985Z,9.58
2023-05-19T23:41:31.136Z,9.41
2023-05-19T23:43:57.305Z,9.43
2023-05-19T23:46:23.567Z,9.33
2023-05-19T23:48:49.797Z,9.39
2023-05-19T23:51:15.947Z,9.53
2023-05-19T23:53:42.122Z,9.41
2023-05-19T23:56:08.291Z,9.42
2023-05-19T23:58:34.467Z,9.50
